sensor_id;sensor_type;location;lat;lon;timestamp;temperature;humidity
2543;DHT22;1116;51.502;7.414;2022-09-23T00:01:31;9.70;24.30
2543;DHT22;1116;51.502;7.414;2022-09-23T00:04:04;9.70;24.60
2543;DHT22;1116;51.502;7.414;2022-09-23T00:06:35;9.70;25.70
2543;DHT22;1116;51.502;7.414;2022-09-23T00:09:09;9.70;24.90
2543;DHT22;1116;51.502;7.414;2022-09-23T00:11:40;9.80;24.70
2543;DHT22;1116;51.502;7.414;2022-09-23T00:14:10;9.80;28.30
2543;DHT22;1116;51.502;7.414;2022-09-23T00:16:41;9.80;24.70
2543;DHT22;1116;51.502;7.414;2022-09-23T00:19:17;9.90;21.60
2543;DHT22;1116;51.502;7.414;2022-09-23T00:21:48;9.90;21.90
2543;DHT22;1116;51.502;7.414;2022-09-23T00:24:19;10.00;21.20
2543;DHT22;1116;51.502;7.414;2022-09-23T00:26:49;10.00;20.40
2543;DHT22;1116;51.502;7.414;2022-09-23T00:29:20;10.00;19.50
2543;DHT22;1116;51.502;7.414;2022-09-23T00:31:51;10.10;18.60
2543;DHT22;1116;51.502;7.414;2022-09-23T00:34:25;10.10;20.20
2543;DHT22;1116;51.502;7.414;2022-09-23T00:37:05;10.10;21.00
2543;DHT22;1116;51.502;7.414;2022-09-23T00:39:36;10.10;20.40
2543;DHT22;1116;51.502;7.414;2022-09-23T00:42:14;10.10;21.10
2543;DHT22;1116;51.502;7.414;2022-09-23T00:44:54;10.10;27.70
2543;DHT22;1116;51.502;7.414;2022-09-23T00:47:31;10.20;26.40
2543;DHT22;1116;51.502;7.414;2022-09-23T00:50:11;10.20;22.50
2543;DHT22;1116;51.502;7.414;2022-09-23T00:52:48;10.20;22.30
2543;DHT22;1116;51.502;7.414;2022-09-23T00:55:22;10.20;19.90
2543;DHT22;1116;51.502;7.414;2022-09-23T00:57:57;10.30;17.10
2543;DHT22;1116;51.502;7.414;2022-09-23T01:00:31;10.30;14.70
2543;DHT22;1116;51.502;7.414;2022-09-23T01:03:04;10.40;16.40
2543;DHT22;1116;51.502;7.414;2022-09-23T01:05:39;10.40;14.70
2543;DHT22;1116;51.502;7.414;2022-09-23T01:08:13;10.40;17.60
2543;DHT22;1116;51.502;7.414;2022-09-23T01:10:49;10.40;17.10
2543;DHT22;1116;51.502;7.414;2022-09-23T01:13:25;10.40;20.80
2543;DHT22;1116;51.502;7.414;2022-09-23T01:16:05;10.40;19.70
2543;DHT22;1116;51.502;7.414;2022-09-23T01:18:44;10.40;18.40
2543;DHT22;1116;51.502;7.414;2022-09-23T01:21:33;10.40;19.30
2543;DHT22;1116;51.502;7.414;2022-09-23T01:24:23;10.30;18.30
2543;DHT22;1116;51.502;7.414;2022-09-23T01:27:06;10.30;21.00
2543;DHT22;1116;51.502;7.414;2022-09-23T01:30:08;10.30;20.00
2543;DHT22;1116;51.502;7.414;2022-09-23T01:32:55;10.30;19.90
2543;DHT22;1116;51.502;7.414;2022-09-23T01:35:41;10.30;21.90
2543;DHT22;1116;51.502;7.414;2022-09-23T01:38:27;10.30;19.20
2543;DHT22;1116;51.502;7.414;2022-09-23T01:41:05;10.30;19.60
2543;DHT22;1116;51.502;7.414;2022-09-23T01:43:51;10.30;20.20
2543;DHT22;1116;51.502;7.414;2022-09-23T01:46:26;10.30;19.10
2543;DHT22;1116;51.502;7.414;2022-09-23T01:49:06;10.20;17.90
2543;DHT22;1116;51.502;7.414;2022-09-23T01:51:44;10.20;17.80
2543;DHT22;1116;51.502;7.414;2022-09-23T01:54:23;10.30;18.80
2543;DHT22;1116;51.502;7.414;2022-09-23T01:56:57;10.20;18.30
2543;DHT22;1116;51.502;7.414;2022-09-23T01:59:32;10.20;17.00
2543;DHT22;1116;51.502;7.414;2022-09-23T02:02:08;10.20;18.00
2543;DHT22;1116;51.502;7.414;2022-09-23T02:04:48;10.20;18.30
2543;DHT22;1116;51.502;7.414;2022-09-23T02:07:24;10.10;18.60
2543;DHT22;1116;51.502;7.414;2022-09-23T02:10:01;10.10;18.60
2543;DHT22;1116;51.502;7.414;2022-09-23T02:12:37;10.00;19.10
2543;DHT22;1116;51.502;7.414;2022-09-23T02:15:15;10.00;20.20
2543;DHT22;1116;51.502;7.414;2022-09-23T02:17:50;10.00;20.70
2543;DHT22;1116;51.502;7.414;2022-09-23T02:20:29;10.00;21.50
2543;DHT22;1116;51.502;7.414;2022-09-23T02:23:03;10.00;20.20
2543;DHT22;1116;51.502;7.414;2022-09-23T02:25:39;9.90;21.10
2543;DHT22;1116;51.502;7.414;2022-09-23T02:28:17;10.00;23.10
2543;DHT22;1116;51.502;7.414;2022-09-23T02:30:52;10.00;19.10
2543;DHT22;1116;51.502;7.414;2022-09-23T02:33:31;10.00;19.70
2543;DHT22;1116;51.502;7.414;2022-09-23T02:36:11;10.10;19.30
2543;DHT22;1116;51.502;7.414;2022-09-23T02:38:50;10.40;21.60
2543;DHT22;1116;51.502;7.414;2022-09-23T02:41:31;10.10;20.90
2543;DHT22;1116;51.502;7.414;2022-09-23T02:44:07;10.10;21.10
2543;DHT22;1116;51.502;7.414;2022-09-23T02:46:40;10.00;19.80
2543;DHT22;1116;51.502;7.414;2022-09-23T02:49:13;10.10;24.40
2543;DHT22;1116;51.502;7.414;2022-09-23T02:51:50;10.10;21.20
2543;DHT22;1116;51.502;7.414;2022-09-23T02:54:26;10.10;22.10
2543;DHT22;1116;51.502;7.414;2022-09-23T02:57:00;10.10;21.00
2543;DHT22;1116;51.502;7.414;2022-09-23T02:59:32;10.10;19.90
2543;DHT22;1116;51.502;7.414;2022-09-23T03:05:11;10.10;20.50
2543;DHT22;1116;51.502;7.414;2022-09-23T03:07:57;10.10;23.20
2543;DHT22;1116;51.502;7.414;2022-09-23T03:10:36;10.10;23.20
2543;DHT22;1116;51.502;7.414;2022-09-23T03:13:15;10.10;21.10
2543;DHT22;1116;51.502;7.414;2022-09-23T03:15:53;10.10;20.90
2543;DHT22;1116;51.502;7.414;2022-09-23T03:18:31;10.10;23.40
2543;DHT22;1116;51.502;7.414;2022-09-23T03:21:10;10.10;23.10
2543;DHT22;1116;51.502;7.414;2022-09-23T03:23:44;10.10;21.10
2543;DHT22;1116;51.502;7.414;2022-09-23T03:26:22;10.10;19.80
2543;DHT22;1116;51.502;7.414;2022-09-23T03:28:53;10.10;20.00
2543;DHT22;1116;51.502;7.414;2022-09-23T03:31:25;10.10;17.90
2543;DHT22;1116;51.502;7.414;2022-09-23T03:33:58;10.20;18.50
2543;DHT22;1116;51.502;7.414;2022-09-23T03:36:33;10.30;19.50
2543;DHT22;1116;51.502;7.414;2022-09-23T03:39:27;10.30;17.80
2543;DHT22;1116;51.502;7.414;2022-09-23T03:42:04;10.20;19.20
2543;DHT22;1116;51.502;7.414;2022-09-23T03:44:44;10.20;19.00
2543;DHT22;1116;51.502;7.414;2022-09-23T03:47:16;10.20;17.60
2543;DHT22;1116;51.502;7.414;2022-09-23T03:49:48;10.20;18.80
2543;DHT22;1116;51.502;7.414;2022-09-23T03:52:21;10.20;18.20
2543;DHT22;1116;51.502;7.414;2022-09-23T03:54:57;10.10;19.90
2543;DHT22;1116;51.502;7.414;2022-09-23T03:57:28;10.10;18.10
2543;DHT22;1116;51.502;7.414;2022-09-23T03:59:59;10.10;18.50
2543;DHT22;1116;51.502;7.414;2022-09-23T04:02:30;10.10;18.80
2543;DHT22;1116;51.502;7.414;2022-09-23T04:05:02;10.00;18.90
2543;DHT22;1116;51.502;7.414;2022-09-23T04:07:33;10.00;19.10
2543;DHT22;1116;51.502;7.414;2022-09-23T04:10:08;9.90;19.40
2543;DHT22;1116;51.502;7.414;2022-09-23T04:12:41;9.90;19.90
2543;DHT22;1116;51.502;7.414;2022-09-23T04:15:15;9.90;20.10
2543;DHT22;1116;51.502;7.414;2022-09-23T04:17:48;9.80;19.70
2543;DHT22;1116;51.502;7.414;2022-09-23T04:20:19;9.80;19.80
2543;DHT22;1116;51.502;7.414;2022-09-23T04:22:50;9.80;19.20
2543;DHT22;1116;51.502;7.414;2022-09-23T04:25:23;9.80;18.70
2543;DHT22;1116;51.502;7.414;2022-09-23T04:27:55;9.80;19.50
2543;DHT22;1116;51.502;7.414;2022-09-23T04:30:26;9.70;19.10
2543;DHT22;1116;51.502;7.414;2022-09-23T04:32:56;9.70;20.60
2543;DHT22;1116;51.502;7.414;2022-09-23T04:35:28;9.70;19.30
2543;DHT22;1116;51.502;7.414;2022-09-23T04:38:06;9.60;19.60
2543;DHT22;1116;51.502;7.414;2022-09-23T04:40:39;9.60;19.40
2543;DHT22;1116;51.502;7.414;2022-09-23T04:43:10;9.60;19.30
2543;DHT22;1116;51.502;7.414;2022-09-23T04:45:42;9.50;20.20
2543;DHT22;1116;51.502;7.414;2022-09-23T04:48:15;9.50;21.30
2543;DHT22;1116;51.502;7.414;2022-09-23T04:50:46;9.40;20.70
2543;DHT22;1116;51.502;7.414;2022-09-23T04:53:19;9.40;20.30
2543;DHT22;1116;51.502;7.414;2022-09-23T04:55:53;9.40;21.30
2543;DHT22;1116;51.502;7.414;2022-09-23T04:58:26;9.40;21.50
2543;DHT22;1116;51.502;7.414;2022-09-23T05:01:07;9.40;22.20
2543;DHT22;1116;51.502;7.414;2022-09-23T05:03:40;9.30;21.50
2543;DHT22;1116;51.502;7.414;2022-09-23T05:06:13;9.30;21.80
2543;DHT22;1116;51.502;7.414;2022-09-23T05:08:50;9.30;23.40
2543;DHT22;1116;51.502;7.414;2022-09-23T05:11:28;9.30;23.40
2543;DHT22;1116;51.502;7.414;2022-09-23T05:14:01;9.20;22.60
2543;DHT22;1116;51.502;7.414;2022-09-23T05:16:35;9.20;21.70
2543;DHT22;1116;51.502;7.414;2022-09-23T05:19:08;9.20;25.10
2543;DHT22;1116;51.502;7.414;2022-09-23T05:21:40;9.70;23.60
2543;DHT22;1116;51.502;7.414;2022-09-23T05:24:14;9.20;22.90
2543;DHT22;1116;51.502;7.414;2022-09-23T05:26:54;9.20;25.40
2543;DHT22;1116;51.502;7.414;2022-09-23T05:29:33;9.20;23.30
2543;DHT22;1116;51.502;7.414;2022-09-23T05:32:09;9.20;24.80
2543;DHT22;1116;51.502;7.414;2022-09-23T05:34:41;9.20;23.30
2543;DHT22;1116;51.502;7.414;2022-09-23T05:37:12;9.20;22.40
2543;DHT22;1116;51.502;7.414;2022-09-23T05:39:43;9.30;23.40
2543;DHT22;1116;51.502;7.414;2022-09-23T05:42:17;9.30;22.60
2543;DHT22;1116;51.502;7.414;2022-09-23T05:44:48;9.40;23.70
2543;DHT22;1116;51.502;7.414;2022-09-23T05:47:19;9.40;22.30
2543;DHT22;1116;51.502;7.414;2022-09-23T05:49:50;9.40;22.20
2543;DHT22;1116;51.502;7.414;2022-09-23T05:52:27;9.40;25.40
2543;DHT22;1116;51.502;7.414;2022-09-23T05:54:58;9.50;23.50
2543;DHT22;1116;51.502;7.414;2022-09-23T05:57:35;9.50;23.90
2543;DHT22;1116;51.502;7.414;2022-09-23T06:00:08;9.50;22.60
2543;DHT22;1116;51.502;7.414;2022-09-23T06:02:39;9.60;23.60
2543;DHT22;1116;51.502;7.414;2022-09-23T06:05:10;9.60;24.10
2543;DHT22;1116;51.502;7.414;2022-09-23T06:07:40;9.70;22.70
2543;DHT22;1116;51.502;7.414;2022-09-23T06:10:11;9.70;22.20
2543;DHT22;1116;51.502;7.414;2022-09-23T06:12:44;9.80;24.00
2543;DHT22;1116;51.502;7.414;2022-09-23T06:15:15;9.80;23.70
2543;DHT22;1116;51.502;7.414;2022-09-23T06:17:48;10.40;23.40
2543;DHT22;1116;51.502;7.414;2022-09-23T06:20:21;10.00;22.60
2543;DHT22;1116;51.502;7.414;2022-09-23T06:22:52;10.00;22.90
2543;DHT22;1116;51.502;7.414;2022-09-23T06:25:26;10.10;24.10
2543;DHT22;1116;51.502;7.414;2022-09-23T06:28:02;9.90;23.80
2543;DHT22;1116;51.502;7.414;2022-09-23T06:30:37;10.20;23.30
2543;DHT22;1116;51.502;7.414;2022-09-23T06:33:13;10.20;22.00
2543;DHT22;1116;51.502;7.414;2022-09-23T06:35:56;10.30;23.30
2543;DHT22;1116;51.502;7.414;2022-09-23T06:38:28;10.40;23.80
2543;DHT22;1116;51.502;7.414;2022-09-23T06:41:01;10.50;23.50
2543;DHT22;1116;51.502;7.414;2022-09-23T06:43:35;10.60;21.50
2543;DHT22;1116;51.502;7.414;2022-09-23T06:46:13;10.70;22.40
2543;DHT22;1116;51.502;7.414;2022-09-23T06:48:51;10.70;20.30
2543;DHT22;1116;51.502;7.414;2022-09-23T06:51:30;10.80;20.30
2543;DHT22;1116;51.502;7.414;2022-09-23T06:54:04;10.90;20.50
2543;DHT22;1116;51.502;7.414;2022-09-23T06:56:38;11.00;23.10
2543;DHT22;1116;51.502;7.414;2022-09-23T06:59:12;11.10;21.70
2543;DHT22;1116;51.502;7.414;2022-09-23T07:01:43;11.30;22.40
2543;DHT22;1116;51.502;7.414;2022-09-23T07:04:15;11.50;20.00
2543;DHT22;1116;51.502;7.414;2022-09-23T07:06:46;11.70;15.60
2543;DHT22;1116;51.502;7.414;2022-09-23T07:09:19;11.90;15.80
2543;DHT22;1116;51.502;7.414;2022-09-23T07:11:49;12.10;17.10
2543;DHT22;1116;51.502;7.414;2022-09-23T07:14:23;12.30;16.10
2543;DHT22;1116;51.502;7.414;2022-09-23T07:16:55;12.60;16.30
2543;DHT22;1116;51.502;7.414;2022-09-23T07:19:27;12.80;12.00
2543;DHT22;1116;51.502;7.414;2022-09-23T07:21:57;13.10;10.20
2543;DHT22;1116;51.502;7.414;2022-09-23T07:24:28;13.70;12.00
2543;DHT22;1116;51.502;7.414;2022-09-23T07:27:01;14.10;9.50
2543;DHT22;1116;51.502;7.414;2022-09-23T07:29:34;14.60;8.90
2543;DHT22;1116;51.502;7.414;2022-09-23T07:32:15;14.90;8.50
2543;DHT22;1116;51.502;7.414;2022-09-23T07:34:46;14.90;1.10
2543;DHT22;1116;51.502;7.414;2022-09-23T07:37:18;15.20;4.80
2543;DHT22;1116;51.502;7.414;2022-09-23T07:39:48;15.20;2.90
2543;DHT22;1116;51.502;7.414;2022-09-23T07:42:19;15.20;5.00
2543;DHT22;1116;51.502;7.414;2022-09-23T07:44:53;15.20;4.30
2543;DHT22;1116;51.502;7.414;2022-09-23T07:47:24;15.20;1.00
2543;DHT22;1116;51.502;7.414;2022-09-23T07:49:54;15.40;2.60
2543;DHT22;1116;51.502;7.414;2022-09-23T07:52:25;15.50;4.70
2543;DHT22;1116;51.502;7.414;2022-09-23T07:54:58;15.50;1.00
2543;DHT22;1116;51.502;7.414;2022-09-23T07:57:29;15.70;2.40
2543;DHT22;1116;51.502;7.414;2022-09-23T08:00:05;15.80;1.00
2543;DHT22;1116;51.502;7.414;2022-09-23T08:02:36;15.80;1.00
2543;DHT22;1116;51.502;7.414;2022-09-23T08:05:08;16.10;1.00
2543;DHT22;1116;51.502;7.414;2022-09-23T08:07:41;16.00;1.00
2543;DHT22;1116;51.502;7.414;2022-09-23T08:10:16;16.20;1.00
2543;DHT22;1116;51.502;7.414;2022-09-23T08:12:47;16.40;1.00
2543;DHT22;1116;51.502;7.414;2022-09-23T08:15:21;16.20;1.00
2543;DHT22;1116;51.502;7.414;2022-09-23T08:17:52;16.20;1.00
2543;DHT22;1116;51.502;7.414;2022-09-23T08:20:23;16.20;1.00
2543;DHT22;1116;51.502;7.414;2022-09-23T08:23:12;16.30;1.00
2543;DHT22;1116;51.502;7.414;2022-09-23T08:25:44;16.40;1.00
2543;DHT22;1116;51.502;7.414;2022-09-23T08:28:16;16.50;1.00
2543;DHT22;1116;51.502;7.414;2022-09-23T08:30:49;16.60;1.00
2543;DHT22;1116;51.502;7.414;2022-09-23T08:33:20;16.60;1.00
2543;DHT22;1116;51.502;7.414;2022-09-23T08:36:01;16.60;1.00
2543;DHT22;1116;51.502;7.414;2022-09-23T08:38:32;16.60;1.00
2543;DHT22;1116;51.502;7.414;2022-09-23T08:41:11;16.60;1.00
2543;DHT22;1116;51.502;7.414;2022-09-23T08:43:47;16.80;1.00
2543;DHT22;1116;51.502;7.414;2022-09-23T08:46:25;16.80;1.00
2543;DHT22;1116;51.502;7.414;2022-09-23T08:48:58;16.90;1.00
2543;DHT22;1116;51.502;7.414;2022-09-23T08:51:37;16.80;1.00
2543;DHT22;1116;51.502;7.414;2022-09-23T08:54:15;16.90;1.00
2543;DHT22;1116;51.502;7.414;2022-09-23T08:56:50;16.90;1.00
2543;DHT22;1116;51.502;7.414;2022-09-23T08:59:25;16.90;1.00
2543;DHT22;1116;51.502;7.414;2022-09-23T09:02:04;16.80;1.00
2543;DHT22;1116;51.502;7.414;2022-09-23T09:04:40;17.00;1.00
2543;DHT22;1116;51.502;7.414;2022-09-23T09:07:14;16.80;1.00
2543;DHT22;1116;51.502;7.414;2022-09-23T09:10:11;16.80;1.00
2543;DHT22;1116;51.502;7.414;2022-09-23T09:12:46;16.90;1.00
2543;DHT22;1116;51.502;7.414;2022-09-23T09:15:20;16.90;1.00
2543;DHT22;1116;51.502;7.414;2022-09-23T09:18:00;16.90;1.00
2543;DHT22;1116;51.502;7.414;2022-09-23T09:20:37;17.10;1.00
2543;DHT22;1116;51.502;7.414;2022-09-23T09:23:20;17.10;1.00
2543;DHT22;1116;51.502;7.414;2022-09-23T09:25:52;17.10;1.00
2543;DHT22;1116;51.502;7.414;2022-09-23T09:28:26;17.10;1.00
2543;DHT22;1116;51.502;7.414;2022-09-23T09:31:00;17.20;1.00
2543;DHT22;1116;51.502;7.414;2022-09-23T09:33:39;17.20;1.00
2543;DHT22;1116;51.502;7.414;2022-09-23T09:36:19;16.80;1.00
2543;DHT22;1116;51.502;7.414;2022-09-23T09:38:54;17.30;1.00
2543;DHT22;1116;51.502;7.414;2022-09-23T09:41:29;17.40;1.00
2543;DHT22;1116;51.502;7.414;2022-09-23T09:44:08;17.40;1.00
2543;DHT22;1116;51.502;7.414;2022-09-23T09:47:07;17.30;1.00
2543;DHT22;1116;51.502;7.414;2022-09-23T09:49:47;17.30;1.00
2543;DHT22;1116;51.502;7.414;2022-09-23T09:52:21;17.40;1.00
2543;DHT22;1116;51.502;7.414;2022-09-23T09:54:52;17.50;1.00
2543;DHT22;1116;51.502;7.414;2022-09-23T09:57:35;17.50;1.00
2543;DHT22;1116;51.502;7.414;2022-09-23T10:00:35;17.80;1.00
2543;DHT22;1116;51.502;7.414;2022-09-23T10:03:25;17.70;1.00
2543;DHT22;1116;51.502;7.414;2022-09-23T10:06:13;17.70;1.00
2543;DHT22;1116;51.502;7.414;2022-09-23T10:09:03;17.80;1.00
2543;DHT22;1116;51.502;7.414;2022-09-23T10:11:35;17.80;1.00
2543;DHT22;1116;51.502;7.414;2022-09-23T10:14:11;17.90;1.00
2543;DHT22;1116;51.502;7.414;2022-09-23T10:16:45;18.00;1.00
2543;DHT22;1116;51.502;7.414;2022-09-23T10:19:24;18.10;1.00
2543;DHT22;1116;51.502;7.414;2022-09-23T10:22:03;18.20;1.00
2543;DHT22;1116;51.502;7.414;2022-09-23T10:24:40;18.30;1.00
2543;DHT22;1116;51.502;7.414;2022-09-23T10:27:28;18.40;1.00
2543;DHT22;1116;51.502;7.414;2022-09-23T10:30:19;18.30;1.00
2543;DHT22;1116;51.502;7.414;2022-09-23T10:32:52;18.30;1.00
2543;DHT22;1116;51.502;7.414;2022-09-23T10:35:26;18.40;1.00
2543;DHT22;1116;51.502;7.414;2022-09-23T10:38:02;18.30;1.00
2543;DHT22;1116;51.502;7.414;2022-09-23T10:40:36;18.30;1.00
2543;DHT22;1116;51.502;7.414;2022-09-23T10:43:27;18.40;1.00
2543;DHT22;1116;51.502;7.414;2022-09-23T10:46:20;18.40;1.00
2543;DHT22;1116;51.502;7.414;2022-09-23T10:49:20;18.40;1.00
2543;DHT22;1116;51.502;7.414;2022-09-23T10:52:06;18.50;1.00
2543;DHT22;1116;51.502;7.414;2022-09-23T10:54:48;18.60;1.00
2543;DHT22;1116;51.502;7.414;2022-09-23T10:57:30;18.70;1.00
2543;DHT22;1116;51.502;7.414;2022-09-23T11:00:19;18.80;1.00
2543;DHT22;1116;51.502;7.414;2022-09-23T11:03:09;18.80;1.00
2543;DHT22;1116;51.502;7.414;2022-09-23T11:05:58;18.90;1.00
2543;DHT22;1116;51.502;7.414;2022-09-23T11:08:46;18.80;1.00
2543;DHT22;1116;51.502;7.414;2022-09-23T11:11:31;18.90;1.00
2543;DHT22;1116;51.502;7.414;2022-09-23T11:14:19;19.10;1.00
2543;DHT22;1116;51.502;7.414;2022-09-23T11:17:14;18.90;1.00
2543;DHT22;1116;51.502;7.414;2022-09-23T11:20:06;19.00;1.00
2543;DHT22;1116;51.502;7.414;2022-09-23T11:22:53;19.00;1.00
2543;DHT22;1116;51.502;7.414;2022-09-23T11:25:33;19.40;1.00
2543;DHT22;1116;51.502;7.414;2022-09-23T11:28:34;19.00;1.00
2543;DHT22;1116;51.502;7.414;2022-09-23T11:31:20;19.10;1.00
2543;DHT22;1116;51.502;7.414;2022-09-23T11:34:04;19.10;1.00
2543;DHT22;1116;51.502;7.414;2022-09-23T11:36:45;19.10;1.00
2543;DHT22;1116;51.502;7.414;2022-09-23T11:39:22;19.30;1.00
2543;DHT22;1116;51.502;7.414;2022-09-23T11:41:57;19.40;1.00
2543;DHT22;1116;51.502;7.414;2022-09-23T11:44:37;19.40;1.00
2543;DHT22;1116;51.502;7.414;2022-09-23T11:47:15;19.50;1.00
2543;DHT22;1116;51.502;7.414;2022-09-23T11:49:51;19.60;1.00
2543;DHT22;1116;51.502;7.414;2022-09-23T11:52:26;19.50;1.00
2543;DHT22;1116;51.502;7.414;2022-09-23T11:55:03;19.60;1.00
2543;DHT22;1116;51.502;7.414;2022-09-23T11:57:50;19.40;1.00
2543;DHT22;1116;51.502;7.414;2022-09-23T12:00:28;19.60;1.00
2543;DHT22;1116;51.502;7.414;2022-09-23T12:03:05;19.90;1.00
2543;DHT22;1116;51.502;7.414;2022-09-23T12:05:40;19.70;1.00
2543;DHT22;1116;51.502;7.414;2022-09-23T12:08:21;19.80;1.00
2543;DHT22;1116;51.502;7.414;2022-09-23T12:11:00;20.00;1.00
2543;DHT22;1116;51.502;7.414;2022-09-23T12:13:41;20.10;1.00
2543;DHT22;1116;51.502;7.414;2022-09-23T12:16:36;20.30;1.00
2543;DHT22;1116;51.502;7.414;2022-09-23T12:19:21;20.30;1.00
2543;DHT22;1116;51.502;7.414;2022-09-23T12:22:04;20.30;1.00
2543;DHT22;1116;51.502;7.414;2022-09-23T12:24:53;20.10;1.00
2543;DHT22;1116;51.502;7.414;2022-09-23T12:27:30;20.00;1.00
2543;DHT22;1116;51.502;7.414;2022-09-23T12:30:07;19.80;1.00
2543;DHT22;1116;51.502;7.414;2022-09-23T12:32:44;19.80;1.00
2543;DHT22;1116;51.502;7.414;2022-09-23T12:35:21;20.10;1.00
2543;DHT22;1116;51.502;7.414;2022-09-23T12:37:53;19.80;1.00
2543;DHT22;1116;51.502;7.414;2022-09-23T12:40:30;20.10;1.00
2543;DHT22;1116;51.502;7.414;2022-09-23T12:43:01;19.80;1.00
2543;DHT22;1116;51.502;7.414;2022-09-23T12:45:36;20.10;1.00
2543;DHT22;1116;51.502;7.414;2022-09-23T12:51:23;20.20;1.00
2543;DHT22;1116;51.502;7.414;2022-09-23T12:57:02;20.30;1.00
2543;DHT22;1116;51.502;7.414;2022-09-23T12:59:56;20.30;1.00
2543;DHT22;1116;51.502;7.414;2022-09-23T13:02:31;20.20;1.00
2543;DHT22;1116;51.502;7.414;2022-09-23T13:05:20;20.20;1.00
2543;DHT22;1116;51.502;7.414;2022-09-23T13:08:08;20.10;1.00
2543;DHT22;1116;51.502;7.414;2022-09-23T13:10:43;20.00;1.00
2543;DHT22;1116;51.502;7.414;2022-09-23T13:13:22;20.10;1.00
2543;DHT22;1116;51.502;7.414;2022-09-23T13:15:55;20.00;1.00
2543;DHT22;1116;51.502;7.414;2022-09-23T13:18:49;20.00;1.00
2543;DHT22;1116;51.502;7.414;2022-09-23T13:24:51;20.00;1.00
2543;DHT22;1116;51.502;7.414;2022-09-23T13:27:29;20.00;1.00
2543;DHT22;1116;51.502;7.414;2022-09-23T13:30:04;19.90;1.00
2543;DHT22;1116;51.502;7.414;2022-09-23T13:32:37;19.90;1.00
2543;DHT22;1116;51.502;7.414;2022-09-23T13:35:15;19.80;1.00
2543;DHT22;1116;51.502;7.414;2022-09-23T13:37:49;19.80;1.00
2543;DHT22;1116;51.502;7.414;2022-09-23T13:40:24;19.70;1.00
2543;DHT22;1116;51.502;7.414;2022-09-23T13:42:58;19.70;1.00
2543;DHT22;1116;51.502;7.414;2022-09-23T13:45:35;20.00;1.00
2543;DHT22;1116;51.502;7.414;2022-09-23T13:48:15;19.60;1.00
2543;DHT22;1116;51.502;7.414;2022-09-23T13:50:47;19.60;1.00
2543;DHT22;1116;51.502;7.414;2022-09-23T13:53:22;19.50;1.00
2543;DHT22;1116;51.502;7.414;2022-09-23T13:56:12;19.50;1.00
2543;DHT22;1116;51.502;7.414;2022-09-23T13:58:43;19.50;1.00
2543;DHT22;1116;51.502;7.414;2022-09-23T14:01:20;19.70;1.00
2543;DHT22;1116;51.502;7.414;2022-09-23T14:03:54;19.50;1.00
2543;DHT22;1116;51.502;7.414;2022-09-23T14:06:28;19.50;1.00
2543;DHT22;1116;51.502;7.414;2022-09-23T14:09:00;19.40;1.00
2543;DHT22;1116;51.502;7.414;2022-09-23T14:11:35;19.50;1.00
2543;DHT22;1116;51.502;7.414;2022-09-23T14:14:11;19.60;1.00
2543;DHT22;1116;51.502;7.414;2022-09-23T14:16:43;19.30;1.00
2543;DHT22;1116;51.502;7.414;2022-09-23T14:19:16;19.20;1.00
2543;DHT22;1116;51.502;7.414;2022-09-23T14:21:48;19.20;1.00
2543;DHT22;1116;51.502;7.414;2022-09-23T14:24:22;19.10;1.00
2543;DHT22;1116;51.502;7.414;2022-09-23T14:27:03;18.60;1.00
2543;DHT22;1116;51.502;7.414;2022-09-23T14:29:40;19.00;1.00
2543;DHT22;1116;51.502;7.414;2022-09-23T14:32:15;19.20;1.00
2543;DHT22;1116;51.502;7.414;2022-09-23T14:34:49;19.00;1.00
2543;DHT22;1116;51.502;7.414;2022-09-23T14:37:25;19.00;1.00
2543;DHT22;1116;51.502;7.414;2022-09-23T14:40:14;18.70;1.00
2543;DHT22;1116;51.502;7.414;2022-09-23T14:42:50;19.00;1.00
2543;DHT22;1116;51.502;7.414;2022-09-23T14:45:24;19.30;1.00
2543;DHT22;1116;51.502;7.414;2022-09-23T14:47:57;18.80;1.00
2543;DHT22;1116;51.502;7.414;2022-09-23T14:50:30;18.80;1.00
2543;DHT22;1116;51.502;7.414;2022-09-23T14:53:35;18.80;1.00
2543;DHT22;1116;51.502;7.414;2022-09-23T14:56:15;18.70;1.00
2543;DHT22;1116;51.502;7.414;2022-09-23T14:58:53;18.70;1.00
2543;DHT22;1116;51.502;7.414;2022-09-23T15:01:35;18.70;1.00
2543;DHT22;1116;51.502;7.414;2022-09-23T15:04:15;18.70;1.00
2543;DHT22;1116;51.502;7.414;2022-09-23T15:06:50;18.70;1.00
2543;DHT22;1116;51.502;7.414;2022-09-23T15:09:23;18.60;1.00
2543;DHT22;1116;51.502;7.414;2022-09-23T15:12:00;18.80;1.00
2543;DHT22;1116;51.502;7.414;2022-09-23T15:14:38;18.50;1.00
2543;DHT22;1116;51.502;7.414;2022-09-23T15:17:26;18.50;1.00
2543;DHT22;1116;51.502;7.414;2022-09-23T15:20:04;18.50;1.00
2543;DHT22;1116;51.502;7.414;2022-09-23T15:22:42;18.50;1.00
2543;DHT22;1116;51.502;7.414;2022-09-23T15:25:16;18.50;1.00
2543;DHT22;1116;51.502;7.414;2022-09-23T15:28:00;18.40;1.00
2543;DHT22;1116;51.502;7.414;2022-09-23T15:30:36;18.40;1.00
2543;DHT22;1116;51.502;7.414;2022-09-23T15:33:15;18.40;1.00
2543;DHT22;1116;51.502;7.414;2022-09-23T15:35:47;18.40;1.00
2543;DHT22;1116;51.502;7.414;2022-09-23T15:38:18;18.30;1.00
2543;DHT22;1116;51.502;7.414;2022-09-23T15:40:49;18.30;1.00
2543;DHT22;1116;51.502;7.414;2022-09-23T15:43:22;18.20;1.00
2543;DHT22;1116;51.502;7.414;2022-09-23T15:45:57;18.70;1.00
2543;DHT22;1116;51.502;7.414;2022-09-23T15:48:34;18.20;1.00
2543;DHT22;1116;51.502;7.414;2022-09-23T15:51:07;18.20;1.00
2543;DHT22;1116;51.502;7.414;2022-09-23T15:53:39;18.10;1.00
2543;DHT22;1116;51.502;7.414;2022-09-23T15:56:10;18.10;1.00
2543;DHT22;1116;51.502;7.414;2022-09-23T15:58:41;18.20;1.00
2543;DHT22;1116;51.502;7.414;2022-09-23T16:01:18;18.10;1.00
2543;DHT22;1116;51.502;7.414;2022-09-23T16:03:51;18.10;1.00
2543;DHT22;1116;51.502;7.414;2022-09-23T16:06:23;18.10;1.00
2543;DHT22;1116;51.502;7.414;2022-09-23T16:08:55;18.00;1.00
2543;DHT22;1116;51.502;7.414;2022-09-23T16:11:28;18.10;1.00
2543;DHT22;1116;51.502;7.414;2022-09-23T16:14:02;18.00;1.00
2543;DHT22;1116;51.502;7.414;2022-09-23T16:16:37;18.00;1.00
2543;DHT22;1116;51.502;7.414;2022-09-23T16:19:11;18.00;1.00
2543;DHT22;1116;51.502;7.414;2022-09-23T16:21:42;18.00;1.00
2543;DHT22;1116;51.502;7.414;2022-09-23T16:24:15;17.90;1.00
2543;DHT22;1116;51.502;7.414;2022-09-23T16:26:51;17.90;1.00
2543;DHT22;1116;51.502;7.414;2022-09-23T16:29:27;18.00;1.00
2543;DHT22;1116;51.502;7.414;2022-09-23T16:32:01;17.90;1.00
2543;DHT22;1116;51.502;7.414;2022-09-23T16:34:32;17.80;1.00
2543;DHT22;1116;51.502;7.414;2022-09-23T16:37:03;17.80;1.00
2543;DHT22;1116;51.502;7.414;2022-09-23T16:39:34;18.00;1.00
2543;DHT22;1116;51.502;7.414;2022-09-23T16:42:07;17.70;1.00
2543;DHT22;1116;51.502;7.414;2022-09-23T16:44:38;17.70;1.00
2543;DHT22;1116;51.502;7.414;2022-09-23T16:47:14;17.70;1.00
2543;DHT22;1116;51.502;7.414;2022-09-23T16:49:47;17.60;1.00
2543;DHT22;1116;51.502;7.414;2022-09-23T16:52:19;17.50;1.00
2543;DHT22;1116;51.502;7.414;2022-09-23T16:54:50;17.50;1.00
2543;DHT22;1116;51.502;7.414;2022-09-23T16:57:23;17.40;1.00
2543;DHT22;1116;51.502;7.414;2022-09-23T16:59:55;17.40;1.00
2543;DHT22;1116;51.502;7.414;2022-09-23T17:02:41;17.30;1.00
2543;DHT22;1116;51.502;7.414;2022-09-23T17:05:25;17.30;1.00
2543;DHT22;1116;51.502;7.414;2022-09-23T17:08:01;17.30;1.00
2543;DHT22;1116;51.502;7.414;2022-09-23T17:10:37;17.00;1.00
2543;DHT22;1116;51.502;7.414;2022-09-23T17:13:08;17.20;1.00
2543;DHT22;1116;51.502;7.414;2022-09-23T17:15:41;17.10;1.00
2543;DHT22;1116;51.502;7.414;2022-09-23T17:18:15;17.10;1.00
2543;DHT22;1116;51.502;7.414;2022-09-23T17:20:58;16.90;1.00
2543;DHT22;1116;51.502;7.414;2022-09-23T17:23:30;16.50;1.00
2543;DHT22;1116;51.502;7.414;2022-09-23T17:26:02;16.90;1.00
2543;DHT22;1116;51.502;7.414;2022-09-23T17:28:36;16.90;1.00